Time;durP1;ratioP1;P1;durP2;ratioP2;P2;SDS_P1;SDS_P2;PMS_P1;PMS_P2;Temp;Humidity;BMP_temperature;BMP_pressure;BME280_temperature;BME280_humidity;BME280_pressure;Samples;Min_cycle;Max_cycle;Signal;HPM_P1;HPM_P2
2021/04/18 00:00:38;;;;;;;26.05;21.40;;;7.70;99.90;;;;;;5116477;28;20081;-69
2021/04/18 00:03:04;;;;;;;25.77;21.63;;;7.60;99.90;;;;;;5114707;28;20027;-70
2021/04/18 00:05:31;;;;;;;26.08;21.92;;;7.60;99.90;;;;;;5115243;28;20133;-70
2021/04/18 00:08:03;;;;;;;26.95;21.90;;;7.60;99.90;;;;;;5116552;28;20047;-70
2021/04/18 00:10:36;;;;;;;26.73;22.05;;;7.50;99.90;;;;;;5116841;28;20019;-70
2021/04/18 00:13:03;;;;;;;28.77;22.48;;;7.50;99.90;;;;;;5120600;28;20027;-69
2021/04/18 00:15:30;;;;;;;27.48;22.70;;;7.50;99.90;;;;;;5120195;28;20016;-70
2021/04/18 00:17:56;;;;;;;31.13;23.38;;;7.60;99.90;;;;;;5119563;28;20019;-70
2021/04/18 00:20:22;;;;;;;27.50;23.02;;;7.50;99.90;;;;;;5121288;28;20088;-70
2021/04/18 00:22:48;;;;;;;30.70;25.15;;;7.50;99.90;;;;;;5119319;28;20023;-71
2021/04/18 00:25:16;;;;;;;30.88;25.52;;;7.60;99.90;;;;;;5119506;28;20553;-70
2021/04/18 00:27:44;;;;;;;27.40;23.27;;;7.60;99.90;;;;;;5120268;27;20045;-70
2021/04/18 00:30:13;;;;;;;31.35;24.55;;;7.60;99.90;;;;;;5119526;28;20019;-69
2021/04/18 00:32:39;;;;;;;33.70;25.92;;;7.60;99.90;;;;;;5119183;28;20030;-70
2021/04/18 00:35:07;;;;;;;27.35;22.27;;;7.60;99.90;;;;;;5120935;28;20024;-70
2021/04/18 00:37:34;;;;;;;40.03;30.25;;;7.60;99.90;;;;;;5118823;28;20065;-70
2021/04/18 00:40:00;;;;;;;30.85;24.73;;;7.50;99.90;;;;;;5120892;28;20025;-71
2021/04/18 00:42:26;;;;;;;24.35;19.40;;;7.50;99.90;;;;;;5120695;28;20050;-70
2021/04/18 00:44:52;;;;;;;20.65;16.48;;;7.40;99.90;;;;;;5120066;28;20016;-69
2021/04/18 00:47:18;;;;;;;23.33;18.45;;;7.30;99.90;;;;;;5119680;28;20023;-71
2021/04/18 00:49:45;;;;;;;30.35;23.27;;;7.30;99.90;;;;;;5119559;28;20023;-70
2021/04/18 00:52:12;;;;;;;18.55;15.43;;;7.30;99.90;;;;;;5118690;28;20063;-70
2021/04/18 00:54:38;;;;;;;47.58;32.28;;;7.30;99.90;;;;;;5118943;28;20023;-70
2021/04/18 00:57:06;;;;;;;23.05;17.35;;;7.20;99.90;;;;;;5120270;28;20016;-69
2021/04/18 00:59:33;;;;;;;34.60;24.55;;;7.20;99.90;;;;;;5120219;28;20015;-69
2021/04/18 01:01:59;;;;;;;96.65;59.70;;;7.20;99.90;;;;;;5120351;28;20020;-69
2021/04/18 01:04:25;;;;;;;38.47;27.63;;;7.20;99.90;;;;;;5118074;28;20062;-70
2021/04/18 01:06:52;;;;;;;89.15;53.42;;;7.20;99.90;;;;;;5117621;28;20118;-70
2021/04/18 01:09:19;;;;;;;40.30;28.13;;;7.20;99.90;;;;;;5118833;28;20094;-70
2021/04/18 01:11:45;;;;;;;61.60;39.40;;;7.20;99.90;;;;;;5120513;28;20111;-69
2021/04/18 01:14:11;;;;;;;56.47;35.83;;;7.20;99.90;;;;;;5119424;28;20477;-69
2021/04/18 01:16:37;;;;;;;42.30;28.00;;;7.20;99.90;;;;;;5117489;28;20042;-70
2021/04/18 01:19:03;;;;;;;22.17;18.05;;;7.20;99.90;;;;;;5119058;28;20098;-70
2021/04/18 01:21:29;;;;;;;18.70;15.18;;;7.10;99.90;;;;;;5119637;28;20043;-70
2021/04/18 01:23:55;;;;;;;65.43;39.00;;;7.10;99.90;;;;;;5118507;28;20026;-69
2021/04/18 01:26:21;;;;;;;18.30;15.20;;;7.10;99.90;;;;;;5119140;28;20070;-69
2021/04/18 01:28:47;;;;;;;19.30;15.30;;;7.10;99.90;;;;;;5120123;28;20024;-69
2021/04/18 01:31:13;;;;;;;18.90;15.90;;;7.00;99.90;;;;;;5119520;28;20020;-70
2021/04/18 01:33:39;;;;;;;21.85;17.17;;;6.80;99.90;;;;;;5119470;27;20478;-70
2021/04/18 01:36:08;;;;;;;19.83;16.42;;;6.70;99.90;;;;;;5118957;27;20028;-70
2021/04/18 01:38:34;;;;;;;21.58;17.52;;;6.80;99.90;;;;;;5118410;28;20016;-70
2021/04/18 01:41:01;;;;;;;20.63;16.92;;;6.80;99.90;;;;;;5119396;28;20036;-70
2021/04/18 01:43:28;;;;;;;20.17;16.25;;;6.80;99.90;;;;;;5118975;28;20023;-70
2021/04/18 01:45:54;;;;;;;19.95;16.45;;;6.80;99.90;;;;;;5117930;28;20027;-70
2021/04/18 01:48:20;;;;;;;18.45;15.82;;;6.70;99.90;;;;;;5119520;28;20015;-70
2021/04/18 01:50:48;;;;;;;20.20;16.67;;;6.60;99.90;;;;;;5119635;28;20338;-70
2021/04/18 01:53:14;;;;;;;19.48;16.42;;;6.60;99.90;;;;;;5117743;28;20054;-70
2021/04/18 01:55:40;;;;;;;16.60;13.32;;;6.60;99.90;;;;;;5115772;28;20023;-70
2021/04/18 01:58:07;;;;;;;22.90;17.10;;;6.60;99.90;;;;;;5119312;28;20107;-70
2021/04/18 02:00:34;;;;;;;32.95;22.10;;;6.60;99.90;;;;;;5118713;27;20039;-70
2021/04/18 02:03:00;;;;;;;39.35;24.70;;;6.80;99.90;;;;;;5118211;28;20065;-70
2021/04/18 02:05:29;;;;;;;32.60;19.20;;;6.80;99.90;;;;;;5117645;28;20058;-70
2021/04/18 02:07:55;;;;;;;30.55;18.08;;;6.70;99.90;;;;;;5118742;28;20037;-70
2021/04/18 02:10:21;;;;;;;42.85;22.38;;;6.70;99.90;;;;;;5117890;27;20045;-70
2021/04/18 02:12:47;;;;;;;42.17;18.90;;;6.70;99.90;;;;;;5118806;28;20020;-70
2021/04/18 02:15:13;;;;;;;12.65;9.85;;;6.70;99.90;;;;;;5118319;28;20024;-70
2021/04/18 02:17:41;;;;;;;13.88;11.60;;;6.70;99.90;;;;;;5119160;28;20031;-70
2021/04/18 02:20:07;;;;;;;15.35;12.25;;;6.60;99.90;;;;;;5118327;28;20027;-69
2021/04/18 02:22:34;;;;;;;16.75;13.63;;;6.60;99.90;;;;;;5118245;28;20027;-70
2021/04/18 02:25:01;;;;;;;15.93;13.73;;;6.50;99.90;;;;;;5117960;28;20035;-69
2021/04/18 02:27:27;;;;;;;16.45;13.82;;;6.50;99.90;;;;;;5118643;28;20149;-70
2021/04/18 02:29:56;;;;;;;20.58;14.60;;;6.50;99.90;;;;;;5117841;28;20382;-70
2021/04/18 02:32:23;;;;;;;16.98;13.63;;;6.50;99.90;;;;;;5118333;28;20016;-70
2021/04/18 02:34:49;;;;;;;18.23;14.25;;;6.50;99.90;;;;;;5117317;28;20370;-70
2021/04/18 02:37:16;;;;;;;16.27;13.50;;;6.50;99.90;;;;;;5117995;28;20027;-69
2021/04/18 02:39:42;;;;;;;16.67;14.32;;;6.40;99.90;;;;;;5114872;28;20028;-71
2021/04/18 02:42:09;;;;;;;17.63;13.75;;;6.40;99.90;;;;;;5117218;28;20350;-70
2021/04/18 02:44:35;;;;;;;17.02;14.20;;;6.20;99.90;;;;;;5115856;28;20040;-70
2021/04/18 02:47:03;;;;;;;15.55;12.93;;;6.20;99.90;;;;;;5117749;28;20027;-70
2021/04/18 02:49:29;;;;;;;16.10;12.50;;;6.10;99.90;;;;;;5116686;28;20016;-70
2021/04/18 02:51:55;;;;;;;12.82;11.30;;;6.10;99.90;;;;;;5115925;28;20110;-70
2021/04/18 02:54:21;;;;;;;13.73;11.52;;;6.20;99.90;;;;;;5115008;28;20485;-71
2021/04/18 02:56:47;;;;;;;14.57;11.18;;;6.20;99.90;;;;;;5115415;28;20028;-70
2021/04/18 02:59:13;;;;;;;12.85;10.90;;;6.10;99.90;;;;;;5117189;28;20073;-71
2021/04/18 03:01:39;;;;;;;11.07;9.15;;;6.10;99.90;;;;;;5117474;28;20024;-71
2021/04/18 03:04:06;;;;;;;14.10;11.48;;;6.10;99.90;;;;;;5116982;28;20040;-71
2021/04/18 03:06:32;;;;;;;18.23;14.63;;;5.90;99.90;;;;;;5118300;28;20077;-69
2021/04/18 03:08:58;;;;;;;12.63;10.35;;;6.00;99.90;;;;;;5116456;28;20027;-69
2021/04/18 03:11:25;;;;;;;13.65;11.25;;;6.00;99.90;;;;;;5118184;28;20084;-69
2021/04/18 03:13:50;;;;;;;14.93;11.38;;;6.00;99.90;;;;;;5118117;28;20449;-69
2021/04/18 03:16:17;;;;;;;16.23;12.07;;;5.90;99.90;;;;;;5118700;28;20028;-69
2021/04/18 03:18:42;;;;;;;14.88;12.35;;;6.00;99.90;;;;;;5119047;28;20482;-70
2021/04/18 03:21:08;;;;;;;14.93;12.10;;;5.90;99.90;;;;;;5117551;28;20031;-69
2021/04/18 03:23:34;;;;;;;13.82;11.88;;;6.00;99.90;;;;;;5116120;28;20015;-69
2021/04/18 03:26:00;;;;;;;16.42;13.45;;;5.90;99.90;;;;;;5117059;28;20497;-69
2021/04/18 03:28:26;;;;;;;16.77;13.10;;;5.90;99.90;;;;;;5118156;28;20041;-70
2021/04/18 03:30:52;;;;;;;18.13;13.88;;;5.80;99.90;;;;;;5118358;28;20015;-70
2021/04/18 03:33:18;;;;;;;16.73;13.63;;;5.90;99.90;;;;;;5118364;28;20020;-69
2021/04/18 03:35:44;;;;;;;16.98;13.85;;;5.80;99.90;;;;;;5115828;28;20049;-69
2021/04/18 03:38:11;;;;;;;15.13;13.25;;;5.80;99.90;;;;;;5117596;28;20020;-70
2021/04/18 03:40:38;;;;;;;16.60;14.32;;;5.60;99.90;;;;;;5117100;28;20556;-69
2021/04/18 03:43:05;;;;;;;15.50;13.20;;;5.70;99.90;;;;;;5117234;28;20045;-70
2021/04/18 03:45:31;;;;;;;21.48;17.05;;;5.70;99.90;;;;;;5115649;28;20111;-70
2021/04/18 03:47:57;;;;;;;22.50;18.02;;;5.70;99.90;;;;;;5122035;28;20477;-70
2021/04/18 03:50:23;;;;;;;21.30;17.38;;;5.70;99.90;;;;;;5122513;28;20016;-69
2021/04/18 03:52:49;;;;;;;24.42;18.85;;;5.60;99.90;;;;;;5120984;28;20165;-70
2021/04/18 03:55:16;;;;;;;22.50;17.00;;;5.50;99.90;;;;;;5121970;28;20125;-70
2021/04/18 03:57:42;;;;;;;17.95;14.70;;;;;;;;;;5122523;28;20026;-69
2021/04/18 04:00:09;;;;;;;20.13;15.88;;;5.50;99.90;;;;;;5121970;28;20020;-70
2021/04/18 04:02:35;;;;;;;15.02;12.70;;;5.60;99.90;;;;;;5121380;28;20377;-69
2021/04/18 04:05:01;;;;;;;15.32;11.38;;;5.60;99.90;;;;;;5120512;28;20060;-69
2021/04/18 04:07:27;;;;;;;15.02;13.05;;;5.50;99.90;;;;;;5120363;28;20019;-70
2021/04/18 04:09:53;;;;;;;15.27;12.68;;;5.40;99.90;;;;;;5122128;28;20023;-70
2021/04/18 04:12:19;;;;;;;17.45;13.68;;;5.50;99.90;;;;;;5120437;28;20016;-69
2021/04/18 04:14:45;;;;;;;22.02;17.50;;;5.50;99.90;;;;;;5121724;28;20028;-70
2021/04/18 04:17:14;;;;;;;15.55;13.27;;;5.40;99.90;;;;;;5121644;28;20020;-69
2021/04/18 04:19:40;;;;;;;16.95;13.70;;;5.50;99.90;;;;;;5121467;28;20098;-69
2021/04/18 04:22:06;;;;;;;12.75;10.80;;;5.40;99.90;;;;;;5121287;28;20104;-69
2021/04/18 04:24:32;;;;;;;14.52;12.20;;;5.40;99.90;;;;;;5121352;28;20020;-69
2021/04/18 04:26:57;;;;;;;20.48;17.08;;;5.50;99.90;;;;;;5118677;28;20076;-70
2021/04/18 04:29:23;;;;;;;26.17;17.60;;;5.50;99.90;;;;;;5120783;28;20015;-69
2021/04/18 04:31:49;;;;;;;27.50;18.70;;;5.40;99.90;;;;;;5120613;28;20015;-70
2021/04/18 04:34:15;;;;;;;29.30;19.40;;;5.50;99.90;;;;;;5122053;28;20026;-69
2021/04/18 04:36:41;;;;;;;29.40;19.10;;;5.40;99.90;;;;;;5121560;28;20489;-70
2021/04/18 04:39:07;;;;;;;33.92;19.42;;;5.50;99.90;;;;;;5121219;28;20494;-69
2021/04/18 04:41:33;;;;;;;31.08;19.40;;;5.40;99.90;;;;;;5121071;28;20031;-70
2021/04/18 04:43:59;;;;;;;23.48;16.80;;;5.30;99.90;;;;;;5122108;28;20016;-69
2021/04/18 04:46:25;;;;;;;21.88;15.35;;;5.40;99.90;;;;;;5121678;27;20011;-69
2021/04/18 04:48:51;;;;;;;23.10;15.30;;;5.30;99.90;;;;;;5121604;28;20030;-69
2021/04/18 04:51:17;;;;;;;26.42;16.67;;;5.20;99.90;;;;;;5121911;28;20015;-69
2021/04/18 04:53:43;;;;;;;34.17;17.95;;;5.20;99.90;;;;;;5119796;28;20148;-69
2021/04/18 04:56:09;;;;;;;33.83;16.65;;;5.40;99.90;;;;;;5120582;27;20019;-69
2021/04/18 04:58:35;;;;;;;28.88;14.88;;;5.30;99.90;;;;;;5120887;28;20477;-70
2021/04/18 05:01:01;;;;;;;20.70;12.80;;;5.20;99.90;;;;;;5119093;28;20366;-69
2021/04/18 05:03:27;;;;;;;18.70;13.25;;;5.30;99.90;;;;;;5120096;28;20016;-70
2021/04/18 05:05:55;;;;;;;20.05;14.63;;;5.40;99.90;;;;;;5119568;28;20040;-69
2021/04/18 05:08:22;;;;;;;21.25;13.90;;;5.30;99.90;;;;;;5119467;28;20367;-69
2021/04/18 05:10:48;;;;;;;21.38;14.18;;;5.30;99.90;;;;;;5120550;28;20474;-69
2021/04/18 05:13:14;;;;;;;18.50;12.57;;;5.20;99.90;;;;;;5119564;28;20034;-70
2021/04/18 05:15:40;;;;;;;15.60;12.25;;;5.30;99.90;;;;;;5120474;28;20095;-70
2021/04/18 05:18:06;;;;;;;17.60;14.15;;;5.30;99.90;;;;;;5118947;28;20465;-70
2021/04/18 05:20:32;;;;;;;22.92;16.35;;;5.50;99.90;;;;;;5117395;28;20482;-70
2021/04/18 05:22:59;;;;;;;15.80;12.60;;;5.60;99.90;;;;;;5118826;28;20016;-69
2021/04/18 05:25:25;;;;;;;19.08;15.07;;;5.40;99.90;;;;;;5120788;28;20027;-69
2021/04/18 05:27:51;;;;;;;17.40;13.23;;;5.50;99.90;;;;;;5119426;28;20500;-70
2021/04/18 05:30:17;;;;;;;15.15;12.02;;;5.60;99.90;;;;;;5118941;28;20007;-70
2021/04/18 05:32:43;;;;;;;11.75;9.70;;;5.60;99.90;;;;;;5119126;28;20501;-69
2021/04/18 05:35:11;;;;;;;19.90;13.98;;;5.70;99.90;;;;;;5119225;27;20509;-69
2021/04/18 05:37:37;;;;;;;12.48;10.95;;;5.80;99.90;;;;;;5119353;28;20016;-70
2021/04/18 05:40:04;;;;;;;14.98;12.32;;;5.70;99.90;;;;;;5119258;28;20031;-70
2021/04/18 05:42:30;;;;;;;16.52;14.57;;;5.70;99.90;;;;;;5119813;28;20052;-70
2021/04/18 05:44:56;;;;;;;20.00;17.25;;;5.60;99.90;;;;;;5119802;28;20051;-69
2021/04/18 05:47:22;;;;;;;10.73;9.27;;;5.70;99.90;;;;;;5118712;28;20374;-70
2021/04/18 05:49:48;;;;;;;12.35;10.45;;;5.60;99.90;;;;;;5118887;28;20404;-69
2021/04/18 05:52:14;;;;;;;27.27;20.38;;;5.50;99.90;;;;;;5120012;28;20038;-70
2021/04/18 05:54:42;;;;;;;18.60;16.05;;;5.80;99.90;;;;;;5120936;28;20030;-69
2021/04/18 05:57:08;;;;;;;21.05;15.75;;;5.70;99.90;;;;;;5120455;28;20072;-69
2021/04/18 05:59:34;;;;;;;25.20;16.17;;;6.00;99.90;;;;;;5119340;28;20028;-70
2021/04/18 06:02:00;;;;;;;12.75;10.30;;;6.00;99.90;;;;;;5118917;28;20073;-70
2021/04/18 06:04:26;;;;;;;11.98;9.55;;;5.90;99.90;;;;;;5117604;28;20048;-70
2021/04/18 06:06:52;;;;;;;12.82;10.10;;;5.90;99.90;;;;;;5118604;28;20477;-70
2021/04/18 06:09:18;;;;;;;26.33;17.92;;;6.00;99.90;;;;;;5118602;28;20496;-69
2021/04/18 06:11:44;;;;;;;19.33;15.65;;;6.00;99.90;;;;;;5119492;28;20101;-69
2021/04/18 06:14:10;;;;;;;17.13;14.63;;;6.10;99.90;;;;;;5119003;28;20036;-70
2021/04/18 06:16:36;;;;;;;15.18;13.05;;;6.10;99.90;;;;;;5120002;27;20466;-70
2021/04/18 06:19:02;;;;;;;14.02;12.48;;;6.20;99.90;;;;;;5118803;28;20438;-70
2021/04/18 06:21:28;;;;;;;13.27;11.88;;;6.20;99.90;;;;;;5118716;28;20032;-70
2021/04/18 06:23:54;;;;;;;15.15;13.52;;;6.30;99.90;;;;;;5119130;28;20553;-70
2021/04/18 06:26:20;;;;;;;26.13;19.00;;;6.10;99.90;;;;;;5118401;28;20020;-70
2021/04/18 06:28:46;;;;;;;23.23;17.30;;;6.10;99.90;;;;;;5119000;28;20027;-69
2021/04/18 06:31:12;;;;;;;19.35;15.52;;;6.20;99.90;;;;;;5117496;28;20020;-69
2021/04/18 06:33:38;;;;;;;28.02;20.30;;;6.20;99.90;;;;;;5117373;28;20028;-70
2021/04/18 06:36:04;;;;;;;32.88;24.02;;;6.20;99.90;;;;;;5117835;28;20362;-70
2021/04/18 06:38:30;;;;;;;35.55;28.85;;;6.00;99.90;;;;;;5117525;28;20077;-70
2021/04/18 06:40:56;;;;;;;25.27;22.15;;;6.00;99.90;;;;;;5119045;28;20027;-70
2021/04/18 06:43:23;;;;;;;54.92;38.42;;;6.10;99.90;;;;;;5118919;28;20020;-70
2021/04/18 09:27:27;;;;;;;68.82;44.40;;;;;;;;;;5135076;27;20391;-71
2021/04/18 09:30:00;;;;;;;36.60;27.88;;;7.20;99.90;;;;;;5135555;28;20031;-72
2021/04/18 09:32:50;;;;;;;25.48;20.90;;;7.30;99.90;;;;;;5135449;28;20033;-71
2021/04/18 09:35:19;;;;;;;30.13;26.88;;;7.20;99.90;;;;;;5131866;28;20046;-71
2021/04/18 09:37:59;;;;;;;23.90;18.30;;;7.20;99.90;;;;;;5131931;28;20023;-71
2021/04/18 09:40:28;;;;;;;28.63;21.38;;;7.20;99.90;;;;;;5135694;28;20038;-71
2021/04/18 09:42:55;;;;;;;51.75;39.78;;;7.30;99.90;;;;;;5136915;27;20059;-71
2021/04/18 09:45:25;;;;;;;75.38;59.25;;;7.40;99.90;;;;;;5135578;28;20026;-71
2021/04/18 09:48:10;;;;;;;49.25;43.80;;;7.40;99.90;;;;;;5136703;28;20026;-71
2021/04/18 09:50:37;;;;;;;69.53;62.20;;;7.40;99.90;;;;;;5137558;28;20080;-71
2021/04/18 09:53:24;;;;;;;44.58;31.85;;;7.30;99.90;;;;;;5114979;28;20019;-72
2021/04/18 09:55:51;;;;;;;21.02;16.50;;;7.30;99.90;;;;;;5133948;28;20035;-71
2021/04/18 09:58:37;;;;;;;43.03;30.40;;;7.30;99.90;;;;;;5136065;28;20026;-72
2021/04/18 10:01:04;;;;;;;45.75;33.28;;;7.20;99.90;;;;;;5134552;28;20042;-71
2021/04/18 10:03:37;;;;;;;38.97;28.48;;;7.40;99.90;;;;;;5132078;28;20008;-71
2021/04/18 10:06:03;;;;;;;35.63;26.15;;;7.30;99.90;;;;;;5134810;28;20027;-71
2021/04/18 10:08:31;;;;;;;34.75;26.25;;;7.40;99.90;;;;;;5135902;28;20093;-71
2021/04/18 10:11:09;;;;;;;32.03;24.02;;;7.60;99.90;;;;;;5135455;28;20023;-72
2021/04/18 10:13:49;;;;;;;109.63;54.30;;;7.60;99.90;;;;;;5117847;28;20076;-71
2021/04/18 10:16:16;;;;;;;38.97;28.00;;;7.50;99.90;;;;;;5135151;28;20042;-71
2021/04/18 10:19:05;;;;;;;26.90;22.63;;;7.70;99.90;;;;;;5136107;28;20024;-71
2021/04/18 10:21:31;;;;;;;33.13;25.30;;;7.80;99.90;;;;;;5135405;27;20031;-71
2021/04/18 10:23:57;;;;;;;26.13;21.05;;;7.70;99.90;;;;;;5136121;28;20102;-72
2021/04/18 10:26:24;;;;;;;63.92;40.85;;;7.50;99.90;;;;;;5116027;28;20075;-72
2021/04/18 10:28:53;;;;;;;22.00;18.95;;;7.50;99.90;;;;;;5105392;28;20018;-71
2021/04/18 10:31:20;;;;;;;24.02;18.05;;;;;;;;;;5121398;28;20026;-71
2021/04/18 10:33:46;;;;;;;21.55;18.27;;;7.80;99.90;;;;;;5121534;28;20035;-73
2021/04/18 10:36:14;;;;;;;37.42;27.77;;;7.80;99.90;;;;;;5123047;28;20028;-71
2021/04/18 10:38:40;;;;;;;47.65;33.53;;;7.80;99.90;;;;;;5121997;28;20030;-71
2021/04/18 10:41:07;;;;;;;42.10;33.90;;;8.00;99.90;;;;;;5123952;28;20439;-70
2021/04/18 10:43:35;;;;;;;29.67;26.58;;;8.10;99.90;;;;;;5106514;28;20047;-71
2021/04/18 10:46:01;;;;;;;31.48;22.80;;;8.20;99.90;;;;;;5124108;28;20069;-70
2021/04/18 10:48:27;;;;;;;50.20;37.65;;;8.30;99.90;;;;;;5121270;28;20480;-71
2021/04/18 10:50:53;;;;;;;32.45;24.38;;;8.40;99.90;;;;;;5116306;28;20023;-72
2021/04/18 10:53:20;;;;;;;50.08;35.42;;;8.40;99.90;;;;;;5116621;28;20047;-72
2021/04/18 10:55:46;;;;;;;45.05;31.30;;;8.40;99.90;;;;;;5115688;28;20035;-71
2021/04/18 10:58:16;;;;;;;70.20;42.85;;;8.40;99.90;;;;;;5115602;28;20023;-69
2021/04/18 11:00:43;;;;;;;47.50;29.73;;;8.30;99.90;;;;;;5113553;28;20015;-71
2021/04/18 11:03:10;;;;;;;52.75;26.90;;;8.60;99.90;;;;;;5120279;28;20035;-70
2021/04/18 11:05:36;;;;;;;43.75;30.10;;;8.40;99.90;;;;;;5120233;28;20023;-71
2021/04/18 11:08:02;;;;;;;62.55;43.97;;;8.60;99.90;;;;;;5117884;28;20019;-71
2021/04/18 11:10:28;;;;;;;42.83;26.52;;;8.70;99.90;;;;;;5119444;28;20081;-70
2021/04/18 11:12:54;;;;;;;55.85;37.47;;;8.80;99.90;;;;;;5120324;28;20026;-71
2021/04/18 11:15:20;;;;;;;69.50;42.65;;;8.70;99.90;;;;;;5124198;28;20111;-71
2021/04/18 11:17:46;;;;;;;40.58;30.48;;;8.80;99.90;;;;;;5119429;28;20500;-71
2021/04/18 11:20:14;;;;;;;45.53;29.67;;;9.00;99.90;;;;;;5117907;28;20418;-68
2021/04/18 11:22:40;;;;;;;43.85;28.45;;;8.70;99.90;;;;;;5100487;28;20020;-72
2021/04/18 11:25:09;;;;;;;31.30;22.13;;;8.90;99.90;;;;;;5122909;28;20032;-72
2021/04/18 11:27:35;;;;;;;76.28;40.65;;;8.90;99.90;;;;;;5123381;28;20368;-71
2021/04/18 11:30:10;;;;;;;44.50;29.00;;;8.80;99.90;;;;;;5123305;28;20034;-72
2021/04/18 11:32:37;;;;;;;29.17;21.15;;;8.80;99.90;;;;;;5102657;28;20050;-71
2021/04/18 11:35:05;;;;;;;43.05;29.35;;;8.50;99.90;;;;;;5102184;28;20084;-71
2021/04/18 11:37:31;;;;;;;77.68;51.45;;;8.60;99.90;;;;;;5122916;28;20103;-71
2021/04/18 11:39:57;;;;;;;84.28;53.13;;;8.70;99.90;;;;;;5101123;28;20066;-70
2021/04/18 11:42:24;;;;;;;48.90;34.30;;;8.50;99.90;;;;;;5103302;28;20026;-70
2021/04/18 11:44:50;;;;;;;74.30;51.78;;;8.50;99.90;;;;;;5122521;28;20008;-71
2021/04/18 11:47:16;;;;;;;44.20;31.13;;;8.50;99.90;;;;;;5118393;28;20034;-71
2021/04/18 11:49:42;;;;;;;53.85;40.28;;;8.50;99.90;;;;;;5118008;28;20477;-72
2021/04/18 11:52:08;;;;;;;25.83;22.35;;;8.60;99.90;;;;;;5103701;28;20023;-71
2021/04/18 11:54:33;;;;;;;32.55;25.42;;;8.60;99.90;;;;;;5121739;28;20077;-71
2021/04/18 11:56:59;;;;;;;20.77;18.58;;;8.70;99.90;;;;;;5122335;28;20025;-72
2021/04/18 11:59:25;;;;;;;19.63;17.02;;;8.60;99.90;;;;;;5119349;28;20027;-71
2021/04/18 12:01:51;;;;;;;26.95;20.40;;;8.60;99.90;;;;;;5115806;28;20038;-71
2021/04/18 12:04:17;;;;;;;46.92;33.80;;;8.50;99.90;;;;;;5114605;28;20026;-72
2021/04/18 12:06:43;;;;;;;29.80;22.27;;;8.50;99.90;;;;;;5096334;28;20039;-71
2021/04/18 12:09:09;;;;;;;23.40;17.38;;;8.50;99.90;;;;;;5114535;28;20043;-72
2021/04/18 12:11:34;;;;;;;25.10;19.85;;;8.40;99.90;;;;;;5097761;28;20407;-72
2021/04/18 12:14:01;;;;;;;34.10;24.25;;;8.40;99.90;;;;;;5115670;28;20011;-72
2021/04/18 12:16:27;;;;;;;45.88;31.35;;;8.30;99.90;;;;;;5114824;28;20023;-72
2021/04/18 12:18:53;;;;;;;58.75;41.55;;;8.40;99.90;;;;;;5114615;28;20030;-73
2021/04/18 12:21:19;;;;;;;48.30;31.83;;;8.30;99.90;;;;;;5114368;28;20020;-72
2021/04/18 12:23:45;;;;;;;52.20;35.30;;;8.20;99.90;;;;;;5114975;28;20004;-72
2021/04/18 12:26:11;;;;;;;46.38;32.00;;;8.40;99.90;;;;;;5087953;28;20074;-70
2021/04/18 12:28:37;;;;;;;51.95;36.83;;;8.50;99.90;;;;;;5081412;28;20516;-71
2021/04/18 12:31:04;;;;;;;43.78;28.40;;;8.70;99.90;;;;;;5079497;28;20009;-71
2021/04/18 12:33:32;;;;;;;77.07;43.95;;;8.70;99.90;;;;;;5076271;28;20012;-71
2021/04/18 12:35:58;;;;;;;72.63;48.63;;;8.80;99.90;;;;;;5080166;28;20047;-71
2021/04/18 12:38:24;;;;;;;90.15;59.10;;;8.80;99.90;;;;;;5078668;28;20060;-71
2021/04/18 12:40:49;;;;;;;68.25;53.97;;;8.80;99.90;;;;;;5079722;28;20028;-72
2021/04/18 12:43:15;;;;;;;259.55;203.35;;;8.80;99.90;;;;;;5073662;28;20028;-71
2021/04/18 12:45:43;;;;;;;145.50;118.20;;;8.80;99.90;;;;;;5077808;28;20054;-71
2021/04/18 12:48:09;;;;;;;164.60;128.25;;;8.80;99.90;;;;;;5071682;28;20020;-71
2021/04/18 12:50:35;;;;;;;101.80;90.55;;;9.00;99.90;;;;;;5076683;28;20048;-71
2021/04/18 12:53:00;;;;;;;54.58;42.25;;;9.00;99.90;;;;;;5079450;28;20024;-71
2021/04/18 12:55:27;;;;;;;49.08;34.50;;;9.10;99.90;;;;;;5076952;28;20018;-71
2021/04/18 12:57:53;;;;;;;61.25;45.60;;;9.10;99.90;;;;;;5076956;28;20028;-70
2021/04/18 13:00:20;;;;;;;44.03;36.25;;;9.00;99.90;;;;;;5073759;28;20020;-71
2021/04/18 13:02:47;;;;;;;14.00;12.48;;;8.80;99.90;;;;;;5071497;28;20021;-72
2021/04/18 13:05:13;;;;;;;22.88;19.48;;;8.70;99.90;;;;;;5079468;28;20086;-71
2021/04/18 13:07:39;;;;;;;34.38;27.50;;;8.70;99.90;;;;;;5077361;28;20667;-70
2021/04/18 13:10:10;;;;;;;39.80;31.15;;;8.70;99.90;;;;;;5079929;28;20378;-71
2021/04/18 13:12:42;;;;;;;26.88;19.48;;;8.80;99.90;;;;;;5074317;28;20389;-72
2021/04/18 13:15:10;;;;;;;37.38;26.90;;;8.90;99.90;;;;;;5075831;28;20086;-72
2021/04/18 13:17:36;;;;;;;37.08;25.48;;;8.90;99.90;;;;;;5073861;28;20078;-72
2021/04/18 13:20:05;;;;;;;30.58;21.00;;;9.00;99.90;;;;;;5074881;28;20068;-72
2021/04/18 13:22:31;;;;;;;30.23;22.83;;;9.00;99.90;;;;;;5076539;28;20017;-72
2021/04/18 13:24:57;;;;;;;26.88;21.52;;;9.00;99.90;;;;;;5076656;28;20103;-73
2021/04/18 13:27:22;;;;;;;38.88;27.38;;;9.10;99.90;;;;;;5114608;28;20027;-72
2021/04/18 13:29:49;;;;;;;43.97;30.92;;;9.10;99.90;;;;;;5118256;28;20024;-72
2021/04/18 13:32:15;;;;;;;51.25;35.78;;;9.20;99.90;;;;;;5114357;28;20076;-71
2021/04/18 13:34:41;;;;;;;38.30;25.30;;;9.10;99.90;;;;;;5113561;28;20019;-73
2021/04/18 13:37:07;;;;;;;13.48;10.50;;;9.20;99.90;;;;;;5095617;28;20487;-71
2021/04/18 13:39:34;;;;;;;50.13;34.42;;;9.10;99.90;;;;;;5114099;28;20035;-72
2021/04/18 13:41:59;;;;;;;64.95;44.65;;;9.10;99.90;;;;;;5113729;28;20064;-72
2021/04/18 13:44:26;;;;;;;67.22;47.95;;;9.00;99.90;;;;;;5113746;28;20111;-72
2021/04/18 13:46:52;;;;;;;46.28;34.53;;;9.00;99.90;;;;;;5113672;28;20027;-72
2021/04/18 13:49:18;;;;;;;24.27;20.27;;;9.00;99.90;;;;;;5114118;28;20492;-72
2021/04/18 13:51:44;;;;;;;26.25;19.90;;;8.90;99.90;;;;;;5117416;28;20020;-71
2021/04/18 13:54:10;;;;;;;25.13;19.65;;;8.90;99.90;;;;;;5114567;28;20544;-72
2021/04/18 13:56:36;;;;;;;28.10;20.75;;;8.90;99.90;;;;;;5113468;28;20035;-71
2021/04/18 13:59:04;;;;;;;21.15;14.15;;;8.80;99.90;;;;;;5115331;28;20023;-71
2021/04/18 14:01:30;;;;;;;18.23;13.10;;;8.80;99.90;;;;;;5115058;28;20046;-74
2021/04/18 14:03:56;;;;;;;18.10;13.00;;;8.80;99.90;;;;;;5120390;28;20031;-72
2021/04/18 14:06:22;;;;;;;25.95;17.42;;;8.80;99.90;;;;;;5121911;28;20024;-71
2021/04/18 14:08:49;;;;;;;32.25;26.55;;;8.80;99.90;;;;;;5121627;28;20469;-70
2021/04/18 14:11:15;;;;;;;26.33;21.52;;;8.80;99.90;;;;;;5122639;28;20433;-71
2021/04/18 14:13:42;;;;;;;24.58;20.02;;;8.90;99.90;;;;;;5122596;28;20381;-72
2021/04/18 14:16:09;;;;;;;33.40;24.65;;;9.00;99.90;;;;;;5121883;28;20089;-71
2021/04/18 14:18:35;;;;;;;28.67;20.98;;;9.00;99.90;;;;;;5120615;28;20027;-72
2021/04/18 14:21:02;;;;;;;30.85;22.40;;;9.10;99.90;;;;;;5122003;28;20003;-71
2021/04/18 14:23:28;;;;;;;35.92;26.02;;;9.20;99.90;;;;;;5120896;28;20100;-71
2021/04/18 14:25:55;;;;;;;25.38;18.42;;;9.30;99.90;;;;;;5119653;28;20075;-72
2021/04/18 14:28:21;;;;;;;52.58;35.33;;;9.40;99.90;;;;;;5119581;28;20028;-72
2021/04/18 14:30:47;;;;;;;62.30;39.10;;;9.40;99.90;;;;;;5121905;28;20374;-71
2021/04/18 14:33:13;;;;;;;26.98;19.08;;;9.50;99.90;;;;;;5120897;28;20031;-70
2021/04/18 14:35:39;;;;;;;14.50;9.88;;;9.60;99.90;;;;;;5120921;28;20114;-70
2021/04/18 14:38:21;;;;;;;18.13;13.00;;;9.60;99.90;;;;;;5120404;28;20062;-70
2021/04/18 14:40:47;;;;;;;17.05;11.98;;;9.70;99.90;;;;;;5102501;28;20023;-71
2021/04/18 14:43:13;;;;;;;21.77;15.00;;;9.50;99.90;;;;;;5117675;28;20355;-71
2021/04/18 14:45:39;;;;;;;21.02;13.15;;;9.60;99.90;;;;;;5115528;28;20024;-72
2021/04/18 14:48:05;;;;;;;24.85;19.13;;;9.60;99.90;;;;;;5116404;28;20015;-71
2021/04/18 14:50:31;;;;;;;18.35;12.10;;;9.70;99.90;;;;;;5117509;28;20035;-71
2021/04/18 14:52:58;;;;;;;22.30;15.68;;;9.70;99.90;;;;;;5098656;28;20028;-71
2021/04/18 14:55:27;;;;;;;19.88;13.60;;;9.70;99.90;;;;;;5121898;28;20032;-71
2021/04/18 14:57:54;;;;;;;19.45;13.65;;;9.70;99.90;;;;;;5102175;28;20034;-71
2021/04/18 15:00:23;;;;;;;17.20;12.65;;;9.80;99.90;;;;;;5118327;28;20023;-71
2021/04/18 15:02:50;;;;;;;11.43;9.25;;;9.90;99.90;;;;;;5104877;28;20023;-72
2021/04/18 15:05:18;;;;;;;15.57;10.27;;;9.90;99.90;;;;;;5121476;28;20103;-72
2021/04/18 15:07:44;;;;;;;14.20;10.73;;;9.90;99.90;;;;;;5122482;28;20436;-72
2021/04/18 15:10:12;;;;;;;11.73;9.30;;;10.00;99.90;;;;;;5121690;28;20020;-71
2021/04/18 15:12:38;;;;;;;10.82;7.93;;;9.80;99.90;;;;;;5102774;28;20011;-72
2021/04/18 15:15:05;;;;;;;17.80;12.15;;;9.80;99.90;;;;;;5100769;28;20568;-72
2021/04/18 15:17:31;;;;;;;15.48;12.35;;;9.80;99.90;;;;;;5101714;28;20028;-74